Time,TemperatureF,DewpointF,PressureIn,WindDirection,WindDirectionDegrees,WindSpeedMPH,WindSpeedGustMPH,Humidity,HourlyPrecipIn,Conditions,Clouds,dailyrainin,SoftwareType,DateUTC
2013-02-20 00:05:00,16.3,15.0,29.88,SW,236,0.0,0.0,93,0.00,,,0.01,weatherlink.com 1.10,2013-02-20 07:05:00,
2013-02-20 00:20:00,14.9,13.0,29.89,SW,233,0.0,1.0,91,0.00,,,0.01,weatherlink.com 1.10,2013-02-20 07:20:00,
2013-02-20 00:35:00,14.2,12.0,29.89,SW,233,0.0,0.0,92,0.00,,,0.01,weatherlink.com 1.10,2013-02-20 07:35:00,
2013-02-20 00:50:00,14.4,13.0,29.89,ESE,120,0.0,0.0,92,0.00,,,0.01,weatherlink.com 1.10,2013-02-20 07:50:00,
2013-02-20 01:05:00,13.6,12.0,29.89,ESE,120,0.0,1.0,93,0.00,,,0.01,weatherlink.com 1.10,2013-02-20 08:05:00,
2013-02-20 01:20:00,14.0,12.0,29.89,SW,231,0.0,0.0,93,0.00,,,0.01,weatherlink.com 1.10,2013-02-20 08:20:00,
2013-02-20 01:35:00,13.7,12.0,29.89,SW,231,0.0,0.0,92,0.00,,,0.01,weatherlink.com 1.10,2013-02-20 08:35:00,
2013-02-20 01:50:00,13.7,12.0,29.89,East,96,0.0,1.0,92,0.00,,,0.01,weatherlink.com 1.10,2013-02-20 08:50:00,
2013-02-20 02:05:00,12.9,10.0,29.90,SW,235,0.0,2.0,88,0.00,,,0.01,weatherlink.com 1.10,2013-02-20 09:05:00,
2013-02-20 02:20:00,12.9,11.0,29.90,North,9,0.0,1.0,92,0.00,,,0.01,weatherlink.com 1.10,2013-02-20 09:20:00,
2013-02-20 02:35:00,14.3,13.0,29.90,ENE,77,0.0,1.0,93,0.00,,,0.01,weatherlink.com 1.10,2013-02-20 09:35:00,
2013-02-20 02:50:00,14.9,13.0,29.90,East,81,0.0,1.0,93,0.00,,,0.01,weatherlink.com 1.10,2013-02-20 09:50:00,
2013-02-20 03:05:00,14.3,12.0,29.90,East,89,0.0,1.0,92,0.00,,,0.01,weatherlink.com 1.10,2013-02-20 10:05:00,
2013-02-20 03:20:00,14.3,12.0,29.90,East,89,0.0,1.0,92,0.00,,,0.01,weatherlink.com 1.10,2013-02-20 10:20:00,
2013-02-20 03:35:00,13.7,11.0,29.90,East,99,0.0,1.0,90,0.00,,,0.01,weatherlink.com 1.10,2013-02-20 10:35:00,
2013-02-20 03:50:00,10.5,8.0,29.90,East,79,1.0,1.0,90,0.00,,,0.01,weatherlink.com 1.10,2013-02-20 10:50:00,
2013-02-20 04:05:00,11.0,9.0,29.91,East,86,1.0,1.0,93,0.00,,,0.01,weatherlink.com 1.10,2013-02-20 11:05:00,
2013-02-20 04:20:00,11.7,10.0,29.91,East,86,0.0,0.0,92,0.00,,,0.01,weatherlink.com 1.10,2013-02-20 11:20:00,
2013-02-20 04:35:00,11.8,10.0,29.91,East,95,0.0,0.0,91,0.00,,,0.01,weatherlink.com 1.10,2013-02-20 11:35:00,
2013-02-20 04:50:00,10.8,9.0,29.92,East,94,0.0,0.0,92,0.00,,,0.01,weatherlink.com 1.10,2013-02-20 11:50:00,
2013-02-20 05:05:00,11.1,9.0,29.92,SW,226,0.0,1.0,92,0.00,,,0.01,weatherlink.com 1.10,2013-02-20 12:05:00,
2013-02-20 05:20:00,8.5,5.0,29.92,East,92,1.0,1.0,87,0.00,,,0.01,weatherlink.com 1.10,2013-02-20 12:20:00,
2013-02-20 05:35:00,8.1,6.0,29.93,East,97,0.0,1.0,89,0.00,,,0.01,weatherlink.com 1.10,2013-02-20 12:35:00,
2013-02-20 05:50:00,8.1,6.0,29.93,SW,233,0.0,1.0,89,0.00,,,0.01,weatherlink.com 1.10,2013-02-20 12:50:00,
2013-02-20 06:05:00,7.8,6.0,29.93,ESE,117,0.0,0.0,92,0.00,,,0.00,weatherlink.com 1.10,2013-02-20 13:05:00,
2013-02-20 06:20:00,8.5,7.0,29.94,East,82,0.0,1.0,92,0.00,,,0.00,weatherlink.com 1.10,2013-02-20 13:20:00,
2013-02-20 06:35:00,7.7,5.0,29.95,East,79,0.0,1.0,90,0.00,,,0.00,weatherlink.com 1.10,2013-02-20 13:35:00,
2013-02-20 06:50:00,7.9,6.0,29.95,East,82,0.0,1.0,90,0.00,,,0.00,weatherlink.com 1.10,2013-02-20 13:50:00,
2013-02-20 07:05:00,8.2,6.0,29.95,NE,46,0.0,1.0,91,0.00,,,0.00,weatherlink.com 1.10,2013-02-20 14:05:00,
2013-02-20 07:20:00,9.1,7.0,29.95,NE,51,0.0,0.0,91,0.00,,,0.00,weatherlink.com 1.10,2013-02-20 14:20:00,
2013-02-20 07:35:00,9.7,8.0,29.96,NNE,19,0.0,1.0,92,0.00,,,0.00,weatherlink.com 1.10,2013-02-20 14:35:00,
2013-02-20 07:50:00,9.3,7.0,29.96,East,79,0.0,1.0,90,0.00,,,0.00,weatherlink.com 1.10,2013-02-20 14:50:00,
2013-02-20 08:06:00,8.6,7.0,29.97,ENE,70,0.0,0.0,92,0.00,,,0.00,weatherlink.com 1.10,2013-02-20 15:06:00,
2013-02-20 08:21:00,10.9,9.0,29.98,ENE,72,1.0,2.0,93,0.00,,,0.00,weatherlink.com 1.10,2013-02-20 15:21:00,
2013-02-20 08:36:00,13.1,11.0,29.98,NW,311,0.0,1.0,92,0.00,,,0.00,weatherlink.com 1.10,2013-02-20 15:36:00,
2013-02-20 08:51:00,16.9,14.0,29.98,SE,145,0.0,1.0,89,0.00,,,0.00,weatherlink.com 1.10,2013-02-20 15:51:00,
2013-02-20 09:06:00,16.7,13.0,29.98,ESE,102,0.0,1.0,86,0.00,,,0.00,weatherlink.com 1.10,2013-02-20 16:06:00,
2013-02-20 09:21:00,19.0,16.0,29.98,ENE,77,0.0,1.0,89,0.00,,,0.00,weatherlink.com 1.10,2013-02-20 16:21:00,
2013-02-20 09:36:00,23.4,20.0,29.98,ENE,75,1.0,2.0,85,0.00,,,0.00,weatherlink.com 1.10,2013-02-20 16:36:00,
2013-02-20 09:51:00,19.6,14.0,29.98,ESE,103,2.0,3.0,80,0.00,,,0.00,weatherlink.com 1.10,2013-02-20 16:51:00,
2013-02-20 10:06:00,22.6,18.0,29.98,ESE,110,0.0,1.0,83,0.00,,,0.00,weatherlink.com 1.10,2013-02-20 17:06:00,
2013-02-20 10:21:00,28.7,22.0,29.98,SSE,156,0.0,1.0,76,0.00,,,0.00,weatherlink.com 1.10,2013-02-20 17:21:00,
2013-02-20 10:36:00,27.5,20.0,29.98,East,98,2.0,2.0,74,0.00,,,0.00,weatherlink.com 1.10,2013-02-20 17:36:00,
2013-02-20 10:51:00,28.5,22.0,29.98,ESE,122,0.0,2.0,75,0.00,,,0.00,weatherlink.com 1.10,2013-02-20 17:51:00,
2013-02-20 11:06:00,29.5,22.0,29.98,East,86,1.0,2.0,72,0.00,,,0.00,weatherlink.com 1.10,2013-02-20 18:06:00,
2013-02-20 11:21:00,29.8,21.0,29.98,ENE,70,2.0,3.0,71,0.00,,,0.00,weatherlink.com 1.10,2013-02-20 18:21:00,
2013-02-20 11:36:00,33.0,23.0,29.97,SW,226,0.0,4.0,68,0.00,,,0.00,weatherlink.com 1.10,2013-02-20 18:36:00,
2013-02-20 11:51:00,34.4,22.0,29.96,WSW,251,1.0,4.0,62,0.00,,,0.00,weatherlink.com 1.10,2013-02-20 18:51:00,
2013-02-20 12:06:00,34.7,22.0,29.96,WNW,284,2.0,5.0,61,0.00,,,0.00,weatherlink.com 1.10,2013-02-20 19:06:00,
2013-02-20 12:22:00,33.5,21.0,29.96,SW,231,3.0,5.0,61,0.00,,,0.00,weatherlink.com 1.10,2013-02-20 19:22:00,
2013-02-20 12:37:00,33.6,21.0,29.95,West,273,2.0,7.0,61,0.00,,,0.00,weatherlink.com 1.10,2013-02-20 19:37:00,
2013-02-20 12:52:00,31.6,20.0,29.95,SW,224,2.0,6.0,62,0.00,,,0.00,weatherlink.com 1.10,2013-02-20 19:52:00,
2013-02-20 13:07:00,32.3,20.0,29.95,WSW,256,2.0,6.0,61,0.00,,,0.00,weatherlink.com 1.10,2013-02-20 20:07:00,
2013-02-20 13:22:00,33.1,20.0,29.94,WSW,242,3.0,7.0,58,0.00,,,0.00,weatherlink.com 1.10,2013-02-20 20:22:00,
2013-02-20 13:52:00,33.5,20.0,29.94,WSW,256,3.0,7.0,57,0.00,,,0.00,weatherlink.com 1.10,2013-02-20 20:52:00,
2013-02-20 14:07:00,33.5,18.0,29.94,West,276,1.0,7.0,53,0.00,,,0.00,weatherlink.com 1.10,2013-02-20 21:07:00,
2013-02-20 14:22:00,33.6,18.0,29.94,WSW,250,2.0,5.0,53,0.00,,,0.00,weatherlink.com 1.10,2013-02-20 21:22:00,
2013-02-20 14:37:00,31.9,16.0,29.94,WNW,288,2.0,4.0,53,0.00,,,0.00,weatherlink.com 1.10,2013-02-20 21:37:00,
2013-02-20 14:52:00,32.5,17.0,29.94,NW,323,2.0,8.0,53,0.00,,,0.00,weatherlink.com 1.10,2013-02-20 21:52:00,
2013-02-20 15:07:00,32.5,17.0,29.94,SW,229,1.0,5.0,54,0.00,,,0.00,weatherlink.com 1.10,2013-02-20 22:07:00,
2013-02-20 15:22:00,31.4,19.0,29.94,WSW,253,1.0,4.0,60,0.00,,,0.00,weatherlink.com 1.10,2013-02-20 22:22:00,
2013-02-20 15:37:00,31.3,17.0,29.93,WSW,256,1.0,9.0,55,0.00,,,0.00,weatherlink.com 1.10,2013-02-20 22:37:00,
2013-02-20 15:52:00,31.1,16.0,29.93,West,264,3.0,10.0,54,0.00,,,0.00,weatherlink.com 1.10,2013-02-20 22:52:00,
2013-02-20 16:07:00,30.3,16.0,29.93,West,266,4.0,7.0,56,0.00,,,0.00,weatherlink.com 1.10,2013-02-20 23:07:00,
2013-02-20 16:22:00,29.8,16.0,29.93,WNW,296,4.0,5.0,56,0.00,,,0.00,weatherlink.com 1.10,2013-02-20 23:22:00,
2013-02-20 16:37:00,29.4,15.0,29.93,SW,229,3.0,7.0,55,0.00,,,0.00,weatherlink.com 1.10,2013-02-20 23:37:00,
2013-02-20 16:52:00,28.8,15.0,29.94,SW,233,2.0,6.0,57,0.00,,,0.00,weatherlink.com 1.10,2013-02-20 23:52:00,
2013-02-20 17:22:00,27.6,14.0,29.95,WSW,248,2.0,5.0,58,0.00,,,0.00,weatherlink.com 1.10,2013-02-21 00:22:00,
2013-02-20 17:37:00,26.7,15.0,29.95,SSW,212,2.0,6.0,61,0.00,,,0.00,weatherlink.com 1.10,2013-02-21 00:37:00,
2013-02-20 17:52:00,26.2,14.0,29.96,SW,236,2.0,5.0,60,0.00,,,0.00,weatherlink.com 1.10,2013-02-21 00:52:00,
2013-02-20 18:07:00,25.5,13.0,29.96,SW,229,2.0,9.0,60,0.00,,,0.00,weatherlink.com 1.10,2013-02-21 01:07:00,
2013-02-20 18:22:00,24.3,13.0,29.97,WSW,256,2.0,5.0,62,0.00,,,0.00,weatherlink.com 1.10,2013-02-21 01:22:00,
2013-02-20 18:37:00,23.9,13.0,29.98,WSW,248,0.0,3.0,63,0.00,,,0.00,weatherlink.com 1.10,2013-02-21 01:37:00,
2013-02-20 18:52:00,23.3,13.0,29.98,West,260,1.0,3.0,65,0.00,,,0.00,weatherlink.com 1.10,2013-02-21 01:52:00,
2013-02-20 19:07:00,23.1,13.0,29.99,WSW,239,1.0,5.0,66,0.00,,,0.00,weatherlink.com 1.10,2013-02-21 02:07:00,
2013-02-20 19:22:00,22.3,13.0,30.00,West,271,0.0,2.0,68,0.00,,,0.00,weatherlink.com 1.10,2013-02-21 02:22:00,
2013-02-20 19:37:00,21.6,13.0,30.00,WSW,248,0.0,2.0,69,0.00,,,0.00,weatherlink.com 1.10,2013-02-21 02:37:00,
2013-02-20 19:52:00,21.1,12.0,30.01,West,281,2.0,7.0,68,0.00,,,0.00,weatherlink.com 1.10,2013-02-21 02:52:00,
2013-02-20 20:07:00,21.1,12.0,30.01,WSW,245,0.0,3.0,69,0.00,,,0.00,weatherlink.com 1.10,2013-02-21 03:07:00,
2013-02-20 20:22:00,20.8,12.0,30.02,SW,219,1.0,5.0,70,0.00,,,0.00,weatherlink.com 1.10,2013-02-21 03:22:00,
2013-02-20 20:37:00,20.4,12.0,30.02,WSW,246,1.0,3.0,70,0.00,,,0.00,weatherlink.com 1.10,2013-02-21 03:37:00,
2013-02-20 20:52:00,20.1,12.0,30.03,West,262,0.0,3.0,70,0.00,,,0.00,weatherlink.com 1.10,2013-02-21 03:52:00,
2013-02-20 21:07:00,18.6,11.0,30.04,North,356,1.0,2.0,71,0.00,,,0.00,weatherlink.com 1.10,2013-02-21 04:07:00,
2013-02-20 21:22:00,18.0,11.0,30.04,West,276,1.0,2.0,75,0.00,,,0.00,weatherlink.com 1.10,2013-02-21 04:22:00,
2013-02-20 21:37:00,18.5,11.0,30.04,West,276,1.0,3.0,72,0.00,,,0.00,weatherlink.com 1.10,2013-02-21 04:37:00,
2013-02-20 21:52:00,18.9,11.0,30.05,SW,235,2.0,3.0,70,0.00,,,0.00,weatherlink.com 1.10,2013-02-21 04:52:00,
2013-02-20 22:07:00,18.6,10.0,30.05,SW,232,0.0,4.0,70,0.00,,,0.00,weatherlink.com 1.10,2013-02-21 05:07:00,
2013-02-20 22:22:00,17.1,10.0,30.06,WSW,240,1.0,3.0,73,0.00,,,0.00,weatherlink.com 1.10,2013-02-21 05:22:00,
2013-02-20 22:37:00,17.0,10.0,30.07,NE,47,3.0,5.0,73,0.00,,,0.00,weatherlink.com 1.10,2013-02-21 05:37:00,
2013-02-20 22:52:00,17.2,10.0,30.07,WSW,240,1.0,3.0,73,0.00,,,0.00,weatherlink.com 1.10,2013-02-21 05:52:00,
2013-02-20 23:07:00,18.1,10.0,30.07,WSW,241,1.0,3.0,70,0.00,,,0.00,weatherlink.com 1.10,2013-02-21 06:07:00,
2013-02-20 23:22:00,16.4,7.0,30.07,East,91,0.0,2.0,67,0.00,,,0.00,weatherlink.com 1.10,2013-02-21 06:22:00,
2013-02-20 23:38:00,11.4,6.0,30.07,NNE,28,0.0,2.0,79,0.00,,,0.00,weatherlink.com 1.10,2013-02-21 06:38:00,
2013-02-20 23:53:00,9.7,5.0,30.07,NNE,33,2.0,3.0,82,0.00,,,0.00,weatherlink.com 1.10,2013-02-21 06:53:00,